Terminal Aerodrome Forecast
Issued by NWS

Home | Current Version | Previous Version | Text Only | Print | Product List | Glossary On
Versions: 1 2 3 4 5 6 7 8 9 10 11 12 13 14 15 16 17 18 19 20 21 22 23 24 25 26 27 28 29 30 31 32 33 34 35 36
248
FTUS41 KALY 282355 CCA
TAFPSF
TAF COR
KPSF 282355Z 2900/2924 14008KT P6SM OVC070
     FM290700 12006KT P6SM VCSH OVC050
     FM290900 12007KT P6SM BKN080 PROB30 2909/2912 4SM -SHRA OVC040
     FM291200 12011KT 4SM -SHRA BR OVC030
     FM291400 11007KT 3SM -SHRA BR OVC009
     FM291900 10007KT 4SM -SHRA BR OVC020
      AMD NOT SKED=

USA.gov is the U.S. government's official web portal to all federal, state and local government web resources and services.